sensor_id;sensor_type;location;lat;lon;timestamp;pressure;altitude;pressure_sealevel;temperature;humidity
22872;BME280;11603;44.910;8.630;2022-12-10T00:01:13;99213.91;;;7.09;100.00
22872;BME280;11603;44.910;8.630;2022-12-10T00:03:39;99209.22;;;7.12;100.00
22872;BME280;11603;44.910;8.630;2022-12-10T00:06:07;99211.66;;;7.15;100.00
22872;BME280;11603;44.910;8.630;2022-12-10T00:08:34;99208.59;;;7.09;100.00
22872;BME280;11603;44.910;8.630;2022-12-10T00:11:01;99201.78;;;7.05;100.00
22872;BME280;11603;44.910;8.630;2022-12-10T00:13:27;99192.84;;;7.06;100.00
22872;BME280;11603;44.910;8.630;2022-12-10T00:15:53;99194.25;;;7.11;100.00
22872;BME280;11603;44.910;8.630;2022-12-10T00:18:18;99187.75;;;7.15;100.00
22872;BME280;11603;44.910;8.630;2022-12-10T00:20:43;99187.63;;;7.17;100.00
22872;BME280;11603;44.910;8.630;2022-12-10T00:23:09;99190.28;;;7.17;100.00
22872;BME280;11603;44.910;8.630;2022-12-10T00:25:35;99185.81;;;7.17;100.00
22872;BME280;11603;44.910;8.630;2022-12-10T00:28:00;99193.69;;;7.19;100.00
22872;BME280;11603;44.910;8.630;2022-12-10T00:30:26;99188.47;;;7.17;100.00
22872;BME280;11603;44.910;8.630;2022-12-10T00:32:53;99182.00;;;7.09;100.00
22872;BME280;11603;44.910;8.630;2022-12-10T00:35:19;99189.22;;;7.07;100.00
22872;BME280;11603;44.910;8.630;2022-12-10T00:37:44;99199.84;;;7.07;100.00
22872;BME280;11603;44.910;8.630;2022-12-10T00:40:10;99201.78;;;7.05;100.00
22872;BME280;11603;44.910;8.630;2022-12-10T00:42:36;99191.34;;;7.02;100.00
22872;BME280;11603;44.910;8.630;2022-12-10T00:45:03;99186.88;;;7.02;100.00
22872;BME280;11603;44.910;8.630;2022-12-10T00:47:30;99172.44;;;7.06;100.00
22872;BME280;11603;44.910;8.630;2022-12-10T00:49:56;99181.47;;;7.04;100.00
22872;BME280;11603;44.910;8.630;2022-12-10T00:52:21;99178.91;;;7.02;100.00
22872;BME280;11603;44.910;8.630;2022-12-10T00:54:48;99178.06;;;7.02;100.00
22872;BME280;11603;44.910;8.630;2022-12-10T00:57:13;99171.78;;;7.03;100.00
22872;BME280;11603;44.910;8.630;2022-12-10T00:59:39;99174.44;;;7.03;100.00
22872;BME280;11603;44.910;8.630;2022-12-10T01:02:04;99174.44;;;7.03;100.00
22872;BME280;11603;44.910;8.630;2022-12-10T01:04:30;99175.28;;;7.03;100.00
22872;BME280;11603;44.910;8.630;2022-12-10T01:06:56;99179.75;;;7.03;100.00
22872;BME280;11603;44.910;8.630;2022-12-10T01:09:24;99174.34;;;7.04;100.00
22872;BME280;11603;44.910;8.630;2022-12-10T01:11:53;99173.16;;;7.08;100.00
22872;BME280;11603;44.910;8.630;2022-12-10T01:14:22;99169.31;;;7.12;100.00
22872;BME280;11603;44.910;8.630;2022-12-10T01:16:49;99166.66;;;7.12;100.00
22872;BME280;11603;44.910;8.630;2022-12-10T01:19:18;99171.13;;;7.12;100.00
22872;BME280;11603;44.910;8.630;2022-12-10T01:21:44;99172.75;;;7.14;100.00
22872;BME280;11603;44.910;8.630;2022-12-10T01:24:09;99163.91;;;7.14;100.00
22872;BME280;11603;44.910;8.630;2022-12-10T01:26:35;99165.63;;;7.15;100.00
22872;BME280;11603;44.910;8.630;2022-12-10T01:29:03;99170.06;;;7.14;100.00
22872;BME280;11603;44.910;8.630;2022-12-10T01:31:31;99164.00;;;7.12;100.00
22872;BME280;11603;44.910;8.630;2022-12-10T01:33:58;99170.50;;;7.08;100.00
22872;BME280;11603;44.910;8.630;2022-12-10T01:36:37;99162.44;;;7.10;100.00
22872;BME280;11603;44.910;8.630;2022-12-10T01:39:06;99171.13;;;7.12;100.00
22872;BME280;11603;44.910;8.630;2022-12-10T01:41:36;99169.44;;;7.11;100.00
22872;BME280;11603;44.910;8.630;2022-12-10T01:46:53;99166.28;;;7.06;100.00
22872;BME280;11603;44.910;8.630;2022-12-10T01:49:31;99165.63;;;7.02;100.00
22872;BME280;11603;44.910;8.630;2022-12-10T01:51:57;99171.34;;;6.96;100.00
22872;BME280;11603;44.910;8.630;2022-12-10T01:54:32;99177.97;;;6.91;100.00
22872;BME280;11603;44.910;8.630;2022-12-10T01:57:46;99179.88;;;6.89;100.00
22872;BME280;11603;44.910;8.630;2022-12-10T02:00:04;99179.56;;;6.93;100.00
22872;BME280;11603;44.910;8.630;2022-12-10T02:02:45;99182.31;;;6.92;100.00
22872;BME280;11603;44.910;8.630;2022-12-10T02:05:28;99179.47;;;6.95;100.00
22872;BME280;11603;44.910;8.630;2022-12-10T02:11:15;99171.34;;;6.96;100.00
22872;BME280;11603;44.910;8.630;2022-12-10T02:13:46;99160.53;;;6.99;100.00
22872;BME280;11603;44.910;8.630;2022-12-10T02:16:23;99159.44;;;7.02;100.00
22872;BME280;11603;44.910;8.630;2022-12-10T02:19:18;99150.53;;;7.03;100.00
22872;BME280;11603;44.910;8.630;2022-12-10T02:21:49;99146.91;;;7.04;100.00
22872;BME280;11603;44.910;8.630;2022-12-10T02:24:21;99142.44;;;7.04;100.00
22872;BME280;11603;44.910;8.630;2022-12-10T02:27:13;99138.94;;;7.04;100.00
22872;BME280;11603;44.910;8.630;2022-12-10T02:29:43;99135.31;;;7.05;100.00
22872;BME280;11603;44.910;8.630;2022-12-10T02:32:33;99143.72;;;6.99;100.00
22872;BME280;11603;44.910;8.630;2022-12-10T02:35:07;99141.16;;;6.97;100.00
22872;BME280;11603;44.910;8.630;2022-12-10T02:37:42;99126.94;;;6.98;100.00
22872;BME280;11603;44.910;8.630;2022-12-10T02:40:16;99128.72;;;6.98;100.00
22872;BME280;11603;44.910;8.630;2022-12-10T02:42:48;99130.75;;;6.94;100.00
22872;BME280;11603;44.910;8.630;2022-12-10T02:45:16;99120.22;;;6.93;100.00
22872;BME280;11603;44.910;8.630;2022-12-10T02:47:43;99122.69;;;6.96;100.00
22872;BME280;11603;44.910;8.630;2022-12-10T02:50:11;99120.13;;;6.94;100.00
22872;BME280;11603;44.910;8.630;2022-12-10T02:52:38;99118.56;;;6.79;100.00
22872;BME280;11603;44.910;8.630;2022-12-10T02:55:04;99119.28;;;6.81;100.00
22872;BME280;11603;44.910;8.630;2022-12-10T03:00:19;99113.34;;;6.90;100.00
22872;BME280;11603;44.910;8.630;2022-12-10T03:13:18;99116.63;;;6.94;100.00
22872;BME280;11603;44.910;8.630;2022-12-10T03:15:47;99123.34;;;6.74;100.00
22872;BME280;11603;44.910;8.630;2022-12-10T03:18:17;99125.16;;;6.73;100.00
22872;BME280;11603;44.910;8.630;2022-12-10T03:20:45;99133.63;;;6.66;100.00
22872;BME280;11603;44.910;8.630;2022-12-10T03:23:16;99130.25;;;6.51;100.00
22872;BME280;11603;44.910;8.630;2022-12-10T03:25:44;99124.72;;;6.54;100.00
22872;BME280;11603;44.910;8.630;2022-12-10T03:28:12;99130.34;;;6.50;100.00
22872;BME280;11603;44.910;8.630;2022-12-10T03:30:39;99116.22;;;6.49;100.00
22872;BME280;11603;44.910;8.630;2022-12-10T03:33:06;99121.09;;;6.55;100.00
22872;BME280;11603;44.910;8.630;2022-12-10T03:35:32;99119.81;;;6.61;100.00
22872;BME280;11603;44.910;8.630;2022-12-10T03:37:58;99113.88;;;6.70;100.00
22872;BME280;11603;44.910;8.630;2022-12-10T03:40:24;99112.19;;;6.69;100.00
22872;BME280;11603;44.910;8.630;2022-12-10T03:42:50;99116.09;;;6.76;100.00
22872;BME280;11603;44.910;8.630;2022-12-10T03:45:16;99109.63;;;6.80;100.00
22872;BME280;11603;44.910;8.630;2022-12-10T03:47:42;99112.41;;;6.78;100.00
22872;BME280;11603;44.910;8.630;2022-12-10T03:50:08;99110.59;;;6.79;100.00
22872;BME280;11603;44.910;8.630;2022-12-10T03:52:34;99113.88;;;6.82;100.00
22872;BME280;11603;44.910;8.630;2022-12-10T03:55:00;99113.53;;;6.87;100.00
22872;BME280;11603;44.910;8.630;2022-12-10T03:57:27;99111.53;;;6.91;100.00
22872;BME280;11603;44.910;8.630;2022-12-10T03:59:52;99100.69;;;6.94;100.00
22872;BME280;11603;44.910;8.630;2022-12-10T04:02:18;99100.16;;;7.01;100.00
22872;BME280;11603;44.910;8.630;2022-12-10T04:04:43;99089.63;;;7.00;100.00
22872;BME280;11603;44.910;8.630;2022-12-10T04:07:09;99085.25;;;6.99;100.00
22872;BME280;11603;44.910;8.630;2022-12-10T04:09:34;99085.41;;;6.72;100.00
22872;BME280;11603;44.910;8.630;2022-12-10T04:12:00;99083.25;;;6.77;100.00
22872;BME280;11603;44.910;8.630;2022-12-10T04:14:27;99087.53;;;6.79;100.00
22872;BME280;11603;44.910;8.630;2022-12-10T04:17:11;99088.91;;;6.85;100.00
22872;BME280;11603;44.910;8.630;2022-12-10T04:19:37;99092.84;;;6.79;100.00
22872;BME280;11603;44.910;8.630;2022-12-10T04:22:03;99096.78;;;6.61;100.00
22872;BME280;11603;44.910;8.630;2022-12-10T04:24:47;99106.44;;;6.50;100.00
22872;BME280;11603;44.910;8.630;2022-12-10T04:27:38;99109.63;;;6.42;100.00
22872;BME280;11603;44.910;8.630;2022-12-10T04:30:09;99110.38;;;6.44;100.00
22872;BME280;11603;44.910;8.630;2022-12-10T04:32:35;99108.91;;;6.53;100.00
22872;BME280;11603;44.910;8.630;2022-12-10T04:35:01;99103.91;;;6.48;100.00
22872;BME280;11603;44.910;8.630;2022-12-10T04:37:27;99101.78;;;6.41;100.00
22872;BME280;11603;44.910;8.630;2022-12-10T04:39:53;99095.50;;;6.42;100.00
22872;BME280;11603;44.910;8.630;2022-12-10T04:42:20;99101.56;;;6.44;100.00
22872;BME280;11603;44.910;8.630;2022-12-10T04:44:46;99097.41;;;6.39;100.00
22872;BME280;11603;44.910;8.630;2022-12-10T04:47:12;99102.63;;;6.41;100.00
22872;BME280;11603;44.910;8.630;2022-12-10T04:49:38;99109.09;;;6.37;100.00
22872;BME280;11603;44.910;8.630;2022-12-10T04:52:05;99112.81;;;6.34;100.00
22872;BME280;11603;44.910;8.630;2022-12-10T04:54:31;99104.63;;;6.25;100.00
22872;BME280;11603;44.910;8.630;2022-12-10T04:56:57;99100.81;;;6.16;100.00
22872;BME280;11603;44.910;8.630;2022-12-10T04:59:23;99098.13;;;6.29;100.00
22872;BME280;11603;44.910;8.630;2022-12-10T05:01:49;99092.63;;;6.19;100.00
22872;BME280;11603;44.910;8.630;2022-12-10T05:04:17;99076.78;;;6.18;100.00
22872;BME280;11603;44.910;8.630;2022-12-10T05:06:43;99074.66;;;6.10;100.00
22872;BME280;11603;44.910;8.630;2022-12-10T05:09:10;99073.81;;;6.10;100.00
22872;BME280;11603;44.910;8.630;2022-12-10T05:11:37;99070.41;;;6.08;100.00
22872;BME280;11603;44.910;8.630;2022-12-10T05:14:03;99067.47;;;6.12;100.00
22872;BME280;11603;44.910;8.630;2022-12-10T05:16:29;99067.56;;;6.11;100.00
22872;BME280;11603;44.910;8.630;2022-12-10T05:18:56;99068.09;;;6.16;100.00
22872;BME280;11603;44.910;8.630;2022-12-10T05:21:23;99067.66;;;6.09;100.00
22872;BME280;11603;44.910;8.630;2022-12-10T05:23:51;99072.09;;;6.09;100.00
22872;BME280;11603;44.910;8.630;2022-12-10T05:26:18;99071.47;;;6.05;100.00
22872;BME280;11603;44.910;8.630;2022-12-10T05:28:47;99080.72;;;6.00;100.00
22872;BME280;11603;44.910;8.630;2022-12-10T05:31:16;99075.19;;;6.03;100.00
22872;BME280;11603;44.910;8.630;2022-12-10T05:33:42;99073.06;;;6.08;100.00
22872;BME280;11603;44.910;8.630;2022-12-10T05:36:10;99079.63;;;6.02;100.00
22872;BME280;11603;44.910;8.630;2022-12-10T05:38:38;99081.75;;;5.97;100.00
22872;BME280;11603;44.910;8.630;2022-12-10T05:41:06;99079.00;;;5.99;100.00
22872;BME280;11603;44.910;8.630;2022-12-10T05:43:32;99077.50;;;5.94;100.00
22872;BME280;11603;44.910;8.630;2022-12-10T05:46:03;99074.53;;;5.99;100.00
22872;BME280;11603;44.910;8.630;2022-12-10T05:48:30;99077.41;;;6.09;100.00
22872;BME280;11603;44.910;8.630;2022-12-10T05:50:56;99074.84;;;6.07;100.00
22872;BME280;11603;44.910;8.630;2022-12-10T05:53:22;99078.72;;;6.16;100.00
22872;BME280;11603;44.910;8.630;2022-12-10T05:55:48;99091.97;;;6.16;100.00
22872;BME280;11603;44.910;8.630;2022-12-10T05:58:14;99083.25;;;6.14;100.00
22872;BME280;11603;44.910;8.630;2022-12-10T06:00:40;99076.56;;;6.08;100.00
22872;BME280;11603;44.910;8.630;2022-12-10T06:03:06;99086.44;;;6.06;100.00
22872;BME280;11603;44.910;8.630;2022-12-10T06:05:39;99090.16;;;6.04;100.00
22872;BME280;11603;44.910;8.630;2022-12-10T06:08:06;99089.13;;;6.06;100.00
22872;BME280;11603;44.910;8.630;2022-12-10T06:10:34;99100.13;;;6.13;100.00
22872;BME280;11603;44.910;8.630;2022-12-10T06:13:01;99093.47;;;6.20;100.00
22872;BME280;11603;44.910;8.630;2022-12-10T06:15:26;99096.53;;;6.14;100.00
22872;BME280;11603;44.910;8.630;2022-12-10T06:17:54;99100.66;;;6.18;100.00
22872;BME280;11603;44.910;8.630;2022-12-10T06:20:19;99100.91;;;6.15;100.00
22872;BME280;11603;44.910;8.630;2022-12-10T06:22:47;99098.88;;;6.06;100.00
22872;BME280;11603;44.910;8.630;2022-12-10T06:25:13;99102.38;;;6.06;100.00
22872;BME280;11603;44.910;8.630;2022-12-10T06:27:38;99097.88;;;5.94;100.00
22872;BME280;11603;44.910;8.630;2022-12-10T06:30:04;99100.38;;;5.83;100.00
22872;BME280;11603;44.910;8.630;2022-12-10T06:32:30;99091.56;;;5.82;100.00
22872;BME280;11603;44.910;8.630;2022-12-10T06:34:55;99089.31;;;5.76;100.00
22872;BME280;11603;44.910;8.630;2022-12-10T06:37:21;99089.03;;;5.81;100.00
22872;BME280;11603;44.910;8.630;2022-12-10T06:39:46;99099.63;;;5.81;100.00
22872;BME280;11603;44.910;8.630;2022-12-10T06:42:12;99095.38;;;5.78;100.00
22872;BME280;11603;44.910;8.630;2022-12-10T06:44:37;99085.81;;;5.76;100.00
22872;BME280;11603;44.910;8.630;2022-12-10T06:47:03;99089.31;;;5.76;100.00
22872;BME280;11603;44.910;8.630;2022-12-10T06:49:29;99094.91;;;5.72;100.00
22872;BME280;11603;44.910;8.630;2022-12-10T06:51:54;99096.41;;;5.76;100.00
22872;BME280;11603;44.910;8.630;2022-12-10T06:54:20;99090.03;;;5.66;100.00
22872;BME280;11603;44.910;8.630;2022-12-10T06:56:45;99093.13;;;5.72;100.00
22872;BME280;11603;44.910;8.630;2022-12-10T06:59:12;99103.94;;;5.69;100.00
22872;BME280;11603;44.910;8.630;2022-12-10T07:01:38;99102.47;;;5.78;100.00
22872;BME280;11603;44.910;8.630;2022-12-10T07:04:03;99099.81;;;5.78;100.00
22872;BME280;11603;44.910;8.630;2022-12-10T07:06:30;99096.13;;;5.80;100.00
22872;BME280;11603;44.910;8.630;2022-12-10T07:08:56;99095.78;;;5.72;100.00
22872;BME280;11603;44.910;8.630;2022-12-10T07:11:23;99096.94;;;5.68;100.00
22872;BME280;11603;44.910;8.630;2022-12-10T07:13:49;99093.03;;;5.74;100.00
22872;BME280;11603;44.910;8.630;2022-12-10T07:16:25;99096.31;;;5.77;100.00
22872;BME280;11603;44.910;8.630;2022-12-10T07:18:52;99100.91;;;5.75;100.00
22872;BME280;11603;44.910;8.630;2022-12-10T07:21:26;99105.22;;;5.76;100.00
22872;BME280;11603;44.910;8.630;2022-12-10T07:23:53;99104.50;;;5.74;100.00
22872;BME280;11603;44.910;8.630;2022-12-10T07:26:21;99106.28;;;5.74;100.00
22872;BME280;11603;44.910;8.630;2022-12-10T07:28:47;99093.66;;;5.77;100.00
22872;BME280;11603;44.910;8.630;2022-12-10T07:31:12;99102.34;;;5.67;100.00
22872;BME280;11603;44.910;8.630;2022-12-10T07:33:38;99096.38;;;5.63;100.00
22872;BME280;11603;44.910;8.630;2022-12-10T07:36:08;99098.34;;;5.74;100.00
22872;BME280;11603;44.910;8.630;2022-12-10T07:38:34;99108.00;;;5.75;100.00
22872;BME280;11603;44.910;8.630;2022-12-10T07:41:07;99103.53;;;5.75;100.00
22872;BME280;11603;44.910;8.630;2022-12-10T07:43:35;99103.63;;;5.74;100.00
22872;BME280;11603;44.910;8.630;2022-12-10T07:46:28;99109.88;;;5.73;100.00
22872;BME280;11603;44.910;8.630;2022-12-10T07:48:55;99115.41;;;5.70;100.00
22872;BME280;11603;44.910;8.630;2022-12-10T07:51:21;99121.25;;;5.75;100.00
22872;BME280;11603;44.910;8.630;2022-12-10T07:53:50;99122.31;;;5.72;100.00
22872;BME280;11603;44.910;8.630;2022-12-10T07:56:16;99120.19;;;5.77;100.00
22872;BME280;11603;44.910;8.630;2022-12-10T07:58:43;99117.53;;;5.77;100.00
22872;BME280;11603;44.910;8.630;2022-12-10T08:01:14;99116.44;;;5.67;100.00
22872;BME280;11603;44.910;8.630;2022-12-10T08:03:41;99117.50;;;5.65;100.00
22872;BME280;11603;44.910;8.630;2022-12-10T08:06:09;99112.22;;;5.65;100.00
22872;BME280;11603;44.910;8.630;2022-12-10T08:08:36;99110.44;;;5.78;100.00
22872;BME280;11603;44.910;8.630;2022-12-10T08:11:04;99110.78;;;5.86;100.00
22872;BME280;11603;44.910;8.630;2022-12-10T08:13:30;99114.66;;;5.68;100.00
22872;BME280;11603;44.910;8.630;2022-12-10T08:16:13;99112.00;;;5.68;100.00
22872;BME280;11603;44.910;8.630;2022-12-10T08:18:39;99112.94;;;5.67;100.00
22872;BME280;11603;44.910;8.630;2022-12-10T08:21:06;99117.84;;;5.73;100.00
22872;BME280;11603;44.910;8.630;2022-12-10T08:23:32;99122.22;;;5.74;100.00
22872;BME280;11603;44.910;8.630;2022-12-10T08:25:58;99132.66;;;5.63;100.00
22872;BME280;11603;44.910;8.630;2022-12-10T08:28:24;99126.88;;;5.70;100.00
22872;BME280;11603;44.910;8.630;2022-12-10T08:30:49;99131.50;;;5.67;100.00
22872;BME280;11603;44.910;8.630;2022-12-10T08:33:15;99129.00;;;5.51;100.00
22872;BME280;11603;44.910;8.630;2022-12-10T08:35:41;99120.19;;;5.50;100.00
22872;BME280;11603;44.910;8.630;2022-12-10T08:38:06;99119.41;;;5.63;100.00
22872;BME280;11603;44.910;8.630;2022-12-10T08:40:32;99114.25;;;5.74;100.00
22872;BME280;11603;44.910;8.630;2022-12-10T08:42:57;99123.25;;;5.71;100.00
22872;BME280;11603;44.910;8.630;2022-12-10T08:45:22;99118.78;;;5.72;100.00
22872;BME280;11603;44.910;8.630;2022-12-10T08:47:48;99123.84;;;5.62;100.00
22872;BME280;11603;44.910;8.630;2022-12-10T08:50:14;99129.81;;;5.66;100.00
22872;BME280;11603;44.910;8.630;2022-12-10T08:52:39;99135.66;;;5.71;100.00
22872;BME280;11603;44.910;8.630;2022-12-10T08:55:05;99127.81;;;5.69;100.00
22872;BME280;11603;44.910;8.630;2022-12-10T08:57:31;99130.66;;;5.66;100.00
22872;BME280;11603;44.910;8.630;2022-12-10T08:59:56;99122.50;;;5.69;100.00
22872;BME280;11603;44.910;8.630;2022-12-10T09:02:22;99123.94;;;5.61;100.00
22872;BME280;11603;44.910;8.630;2022-12-10T09:04:49;99127.44;;;5.61;100.00
22872;BME280;11603;44.910;8.630;2022-12-10T09:07:15;99131.16;;;5.59;100.00
22872;BME280;11603;44.910;8.630;2022-12-10T09:09:40;99136.72;;;5.68;100.00
22872;BME280;11603;44.910;8.630;2022-12-10T09:12:06;99135.88;;;5.68;100.00
22872;BME280;11603;44.910;8.630;2022-12-10T09:14:32;99139.22;;;5.57;100.00
22872;BME280;11603;44.910;8.630;2022-12-10T09:16:57;99135.56;;;5.72;100.00
22872;BME280;11603;44.910;8.630;2022-12-10T09:19:23;99123.06;;;5.74;100.00
22872;BME280;11603;44.910;8.630;2022-12-10T09:21:48;99120.50;;;5.73;100.00
22872;BME280;11603;44.910;8.630;2022-12-10T09:24:13;99126.66;;;5.73;100.00
22872;BME280;11603;44.910;8.630;2022-12-10T09:26:39;99121.41;;;5.86;100.00
22872;BME280;11603;44.910;8.630;2022-12-10T09:29:05;99131.25;;;5.84;100.00
22872;BME280;11603;44.910;8.630;2022-12-10T09:31:31;99128.06;;;5.79;100.00
22872;BME280;11603;44.910;8.630;2022-12-10T09:33:57;99131.03;;;5.74;100.00
22872;BME280;11603;44.910;8.630;2022-12-10T09:36:22;99134.94;;;5.81;100.00
22872;BME280;11603;44.910;8.630;2022-12-10T09:38:48;99117.81;;;5.87;100.00
22872;BME280;11603;44.910;8.630;2022-12-10T09:46:53;99113.81;;;5.94;100.00
22872;BME280;11603;44.910;8.630;2022-12-10T09:51:50;99122.31;;;5.99;100.00
22872;BME280;11603;44.910;8.630;2022-12-10T09:54:27;99118.84;;;6.11;100.00
22872;BME280;11603;44.910;8.630;2022-12-10T09:56:55;99119.25;;;6.05;100.00
22872;BME280;11603;44.910;8.630;2022-12-10T09:59:36;99112.78;;;6.09;100.00
22872;BME280;11603;44.910;8.630;2022-12-10T10:04:46;99113.72;;;5.95;100.00
22872;BME280;11603;44.910;8.630;2022-12-10T10:07:21;99111.91;;;5.96;100.00
22872;BME280;11603;44.910;8.630;2022-12-10T10:09:49;99105.63;;;5.97;100.00
22872;BME280;11603;44.910;8.630;2022-12-10T10:12:16;99098.56;;;6.10;100.00
22872;BME280;11603;44.910;8.630;2022-12-10T10:14:43;99094.06;;;5.98;100.00
22872;BME280;11603;44.910;8.630;2022-12-10T10:17:16;99088.34;;;6.04;100.00
22872;BME280;11603;44.910;8.630;2022-12-10T10:19:43;99091.31;;;6.00;100.00
22872;BME280;11603;44.910;8.630;2022-12-10T10:22:10;99087.19;;;6.08;100.00
22872;BME280;11603;44.910;8.630;2022-12-10T10:24:41;99090.47;;;5.99;100.00
22872;BME280;11603;44.910;8.630;2022-12-10T10:27:21;99076.56;;;5.95;100.00
22872;BME280;11603;44.910;8.630;2022-12-10T10:29:53;99076.34;;;5.99;100.00
22872;BME280;11603;44.910;8.630;2022-12-10T10:32:22;99073.09;;;6.20;100.00
22872;BME280;11603;44.910;8.630;2022-12-10T10:34:56;99066.50;;;6.26;100.00
22872;BME280;11603;44.910;8.630;2022-12-10T10:37:29;99063.97;;;6.12;100.00
22872;BME280;11603;44.910;8.630;2022-12-10T10:39:56;99062.47;;;6.20;100.00
22872;BME280;11603;44.910;8.630;2022-12-10T10:42:37;99050.78;;;6.35;100.00
22872;BME280;11603;44.910;8.630;2022-12-10T10:45:06;99043.53;;;6.50;100.00
22872;BME280;11603;44.910;8.630;2022-12-10T10:48:03;99038.38;;;6.36;100.00
22872;BME280;11603;44.910;8.630;2022-12-10T10:50:29;99033.56;;;6.28;100.00
22872;BME280;11603;44.910;8.630;2022-12-10T10:52:55;99040.78;;;6.39;100.00
22872;BME280;11603;44.910;8.630;2022-12-10T10:55:31;99033.25;;;6.46;100.00
22872;BME280;11603;44.910;8.630;2022-12-10T10:58:01;99037.50;;;6.35;100.00
22872;BME280;11603;44.910;8.630;2022-12-10T11:00:27;99034.72;;;6.50;100.00
22872;BME280;11603;44.910;8.630;2022-12-10T11:02:52;99027.41;;;6.53;100.00
22872;BME280;11603;44.910;8.630;2022-12-10T11:05:24;99030.50;;;6.47;100.00
22872;BME280;11603;44.910;8.630;2022-12-10T11:08:12;99034.53;;;6.40;100.00
22872;BME280;11603;44.910;8.630;2022-12-10T11:10:47;99026.47;;;6.29;100.00
22872;BME280;11603;44.910;8.630;2022-12-10T11:13:27;99018.91;;;6.35;100.00
22872;BME280;11603;44.910;8.630;2022-12-10T11:16:00;99018.28;;;6.19;100.00
22872;BME280;11603;44.910;8.630;2022-12-10T11:23:56;99014.47;;;6.11;100.00
22872;BME280;11603;44.910;8.630;2022-12-10T11:34:37;98984.31;;;6.37;100.00
22872;BME280;11603;44.910;8.630;2022-12-10T11:37:26;98985.72;;;6.66;100.00
22872;BME280;11603;44.910;8.630;2022-12-10T11:40:23;98972.81;;;6.86;100.00
22872;BME280;11603;44.910;8.630;2022-12-10T11:51:04;98963.69;;;6.77;100.00
22872;BME280;11603;44.910;8.630;2022-12-10T11:56:40;98968.16;;;6.76;100.00
22872;BME280;11603;44.910;8.630;2022-12-10T12:02:02;98951.03;;;6.80;100.00
22872;BME280;11603;44.910;8.630;2022-12-10T12:05:12;98953.22;;;6.63;100.00
22872;BME280;11603;44.910;8.630;2022-12-10T12:18:20;98933.78;;;6.86;100.00
22872;BME280;11603;44.910;8.630;2022-12-10T12:20:51;98939.16;;;6.73;100.00
22872;BME280;11603;44.910;8.630;2022-12-10T12:23:39;98934.63;;;6.87;100.00
22872;BME280;11603;44.910;8.630;2022-12-10T12:26:11;98922.66;;;7.05;100.00
22872;BME280;11603;44.910;8.630;2022-12-10T12:31:20;98916.34;;;6.95;100.00
22872;BME280;11603;44.910;8.630;2022-12-10T12:33:51;98923.34;;;6.96;100.00
22872;BME280;11603;44.910;8.630;2022-12-10T12:36:21;98918.81;;;7.09;100.00
22872;BME280;11603;44.910;8.630;2022-12-10T12:38:56;98914.09;;;7.01;100.00
22872;BME280;11603;44.910;8.630;2022-12-10T12:41:31;98915.31;;;7.08;100.00
22872;BME280;11603;44.910;8.630;2022-12-10T12:44:22;98923.38;;;7.07;100.00
22872;BME280;11603;44.910;8.630;2022-12-10T12:46:56;98926.88;;;7.07;100.00
22872;BME280;11603;44.910;8.630;2022-12-10T12:49:30;98919.06;;;7.06;100.00
22872;BME280;11603;44.910;8.630;2022-12-10T12:52:33;98912.72;;;6.96;100.00
22872;BME280;11603;44.910;8.630;2022-12-10T12:55:09;98914.28;;;6.98;100.00
22872;BME280;11603;44.910;8.630;2022-12-10T12:57:44;98907.28;;;6.97;100.00
22872;BME280;11603;44.910;8.630;2022-12-10T13:00:15;98896.56;;;6.75;100.00
22872;BME280;11603;44.910;8.630;2022-12-10T13:03:17;98894.16;;;6.83;100.00
22872;BME280;11603;44.910;8.630;2022-12-10T13:05:46;98887.38;;;7.03;100.00
22872;BME280;11603;44.910;8.630;2022-12-10T13:15:52;98890.00;;;7.27;100.00
22872;BME280;11603;44.910;8.630;2022-12-10T13:18:21;98882.56;;;7.43;100.00
22872;BME280;11603;44.910;8.630;2022-12-10T13:21:15;98885.94;;;7.45;100.00
22872;BME280;11603;44.910;8.630;2022-12-10T13:23:49;98878.22;;;7.53;100.00
22872;BME280;11603;44.910;8.630;2022-12-10T13:26:27;98885.47;;;7.51;100.00
22872;BME280;11603;44.910;8.630;2022-12-10T13:28:55;98882.56;;;7.43;100.00
22872;BME280;11603;44.910;8.630;2022-12-10T13:41:34;98862.38;;;7.62;100.00
22872;BME280;11603;44.910;8.630;2022-12-10T13:44:33;98859.47;;;7.54;100.00
22872;BME280;11603;44.910;8.630;2022-12-10T13:49:58;98864.72;;;7.78;100.00
22872;BME280;11603;44.910;8.630;2022-12-10T13:55:12;98864.94;;;7.75;100.00
22872;BME280;11603;44.910;8.630;2022-12-10T13:57:48;98872.69;;;7.89;100.00
22872;BME280;11603;44.910;8.630;2022-12-10T14:00:20;98878.25;;;7.86;100.00
22872;BME280;11603;44.910;8.630;2022-12-10T14:03:21;98880.78;;;7.88;100.00
22872;BME280;11603;44.910;8.630;2022-12-10T14:06:13;98876.81;;;7.82;100.00
22872;BME280;11603;44.910;8.630;2022-12-10T14:08:54;98882.50;;;7.89;100.00
22872;BME280;11603;44.910;8.630;2022-12-10T14:11:24;98867.59;;;7.97;100.00
22872;BME280;11603;44.910;8.630;2022-12-10T14:13:56;98862.88;;;8.01;100.00
22872;BME280;11603;44.910;8.630;2022-12-10T14:16:28;98862.16;;;8.10;100.00
22872;BME280;11603;44.910;8.630;2022-12-10T14:19:04;98865.69;;;8.11;100.00
22872;BME280;11603;44.910;8.630;2022-12-10T14:21:41;98870.00;;;8.12;100.00
22872;BME280;11603;44.910;8.630;2022-12-10T14:26:58;98872.94;;;8.08;100.00
22872;BME280;11603;44.910;8.630;2022-12-10T14:29:25;98865.69;;;8.11;100.00
22872;BME280;11603;44.910;8.630;2022-12-10T14:31:50;98873.31;;;8.15;100.00
22872;BME280;11603;44.910;8.630;2022-12-10T14:34:25;98871.13;;;8.20;100.00
22872;BME280;11603;44.910;8.630;2022-12-10T14:37:02;98867.97;;;8.26;100.00
22872;BME280;11603;44.910;8.630;2022-12-10T14:39:31;98871.72;;;8.24;100.00
22872;BME280;11603;44.910;8.630;2022-12-10T14:42:06;98878.00;;;8.23;100.00
22872;BME280;11603;44.910;8.630;2022-12-10T14:44:37;98864.19;;;8.29;100.00
22872;BME280;11603;44.910;8.630;2022-12-10T14:47:06;98868.22;;;8.34;100.00
22872;BME280;11603;44.910;8.630;2022-12-10T14:49:38;98870.50;;;8.39;100.00
22872;BME280;11603;44.910;8.630;2022-12-10T14:52:11;98863.84;;;8.44;100.00